createdAt,value
2018-06-12T00:02:20.462Z,16.30
2018-06-12T00:04:49.250Z,16.30
2018-06-12T00:07:19.085Z,16.30
2018-06-12T00:09:49.913Z,16.30
2018-06-12T00:12:18.813Z,16.30
2018-06-12T00:14:47.675Z,16.20
2018-06-12T00:17:20.246Z,16.20
2018-06-12T00:19:54.961Z,16.20
2018-06-12T00:22:27.993Z,16.30
2018-06-12T00:25:01.884Z,16.30
2018-06-12T00:27:32.078Z,16.30
2018-06-12T00:30:01.934Z,16.30
2018-06-12T00:32:36.436Z,16.40
2018-06-12T00:35:14.773Z,16.40
2018-06-12T00:37:44.689Z,16.40
2018-06-12T00:40:23.337Z,16.40
2018-06-12T00:42:52.197Z,16.40
2018-06-12T00:45:22.074Z,16.40
2018-06-12T00:47:52.929Z,16.50
2018-06-12T00:50:27.705Z,16.50
2018-06-12T00:52:58.594Z,16.50
2018-06-12T00:55:28.032Z,16.50
2018-06-12T00:58:01.457Z,16.50
2018-06-12T01:00:35.775Z,16.50
2018-06-12T01:03:04.621Z,16.60
2018-06-12T01:05:34.501Z,16.60
2018-06-12T01:08:04.320Z,16.60
2018-06-12T01:10:35.053Z,16.60
2018-06-12T01:13:04.841Z,16.60
2018-06-12T01:15:37.622Z,16.60
2018-06-12T01:18:07.417Z,16.70
2018-06-12T01:20:43.711Z,16.70
2018-06-12T01:25:41.085Z,16.70
2018-06-12T01:28:15.941Z,16.70
2018-06-12T01:30:46.757Z,16.70
2018-06-12T01:33:16.677Z,16.60
2018-06-12T01:35:49.121Z,16.70
2018-06-12T01:40:54.301Z,16.70
2018-06-12T01:43:23.213Z,16.70
2018-06-12T01:45:53.115Z,16.70
2018-06-12T01:48:22.925Z,16.70
2018-06-12T01:50:51.845Z,16.70
2018-06-12T01:53:20.678Z,16.70
2018-06-12T01:55:54.933Z,16.60
2018-06-12T01:58:24.801Z,16.60
2018-06-12T02:00:53.741Z,16.60
2018-06-12T02:03:22.685Z,16.60
2018-06-12T02:05:51.513Z,16.60
2018-06-12T02:08:21.493Z,16.60
2018-06-12T02:10:50.529Z,16.60
2018-06-12T02:13:23.706Z,16.70
2018-06-12T02:15:52.569Z,16.70
2018-06-12T02:18:23.389Z,16.70
2018-06-12T02:20:53.230Z,16.70
2018-06-12T02:23:23.077Z,16.70
2018-06-12T02:25:51.970Z,16.70
2018-06-12T02:28:20.810Z,16.70
2018-06-12T02:30:49.761Z,16.70
2018-06-12T02:33:18.593Z,16.70
2018-06-12T02:35:49.477Z,16.60
2018-06-12T02:38:19.383Z,16.60
2018-06-12T02:40:49.231Z,16.60
2018-06-12T02:45:54.946Z,16.50
2018-06-12T02:48:27.032Z,16.60
2018-06-12T02:50:58.977Z,16.50
2018-06-12T02:53:27.825Z,16.50
2018-06-12T02:55:57.697Z,16.60
2018-06-12T02:58:29.473Z,16.50
2018-06-12T03:00:59.357Z,16.50
2018-06-12T03:03:33.457Z,16.50
2018-06-12T03:08:36.557Z,16.40
2018-06-12T03:11:05.432Z,16.40
2018-06-12T03:13:34.261Z,16.30
2018-06-12T03:16:03.341Z,16.20
2018-06-12T03:18:36.325Z,16.20
2018-06-12T03:21:05.320Z,16.10
2018-06-12T03:23:34.265Z,16.10
2018-06-12T03:26:05.069Z,16.00
2018-06-12T03:28:35.949Z,16.00
2018-06-12T03:31:05.793Z,15.90
2018-06-12T03:33:35.672Z,15.80
2018-06-12T03:36:04.621Z,15.80
2018-06-12T03:38:34.573Z,15.70
2018-06-12T03:41:03.564Z,15.70
2018-06-12T03:43:32.373Z,15.70
2018-06-12T03:46:02.193Z,15.80
2018-06-12T03:48:32.009Z,15.90
2018-06-12T03:51:04.745Z,16.10
2018-06-12T03:53:35.701Z,16.20
2018-06-12T03:56:09.645Z,16.30
2018-06-12T04:01:18.225Z,16.40
2018-06-12T04:06:16.649Z,16.50
2018-06-12T04:08:45.513Z,16.50
2018-06-12T04:11:18.953Z,16.60
2018-06-12T04:13:49.784Z,16.60
2018-06-12T04:16:23.993Z,16.60
2018-06-12T04:18:54.768Z,16.70
2018-06-12T04:21:43.365Z,16.80
2018-06-12T04:24:12.245Z,16.80
2018-06-12T04:26:44.616Z,16.90
2018-06-12T04:29:14.420Z,16.80
2018-06-12T04:31:44.268Z,16.80
2018-06-12T04:34:15.060Z,16.80
2018-06-12T04:36:43.969Z,16.80
2018-06-12T04:39:16.537Z,16.90
2018-06-12T04:41:49.469Z,16.80
2018-06-12T04:44:18.332Z,16.70
2018-06-12T04:46:48.144Z,16.60
2018-06-12T04:49:26.189Z,16.70
2018-06-12T04:51:55.021Z,16.80
2018-06-12T04:54:23.904Z,17.00
2018-06-12T04:56:52.678Z,17.30
2018-06-12T04:59:22.500Z,17.70
2018-06-12T05:01:58.088Z,17.90
2018-06-12T05:04:27.984Z,18.10
2018-06-12T05:06:56.761Z,18.20
2018-06-12T05:09:32.101Z,18.00
2018-06-12T05:14:35.893Z,18.00
2018-06-12T05:17:04.732Z,18.00
2018-06-12T05:19:35.537Z,17.90
2018-06-12T05:22:05.345Z,17.80
2018-06-12T05:24:36.188Z,17.80
2018-06-12T05:27:04.988Z,18.10
2018-06-12T05:29:38.564Z,18.20
2018-06-12T05:32:15.584Z,18.30
2018-06-12T05:34:44.432Z,18.20
2018-06-12T05:37:15.309Z,18.40
2018-06-12T05:39:44.164Z,18.60
2018-06-12T05:42:12.920Z,19.00
2018-06-12T05:44:47.800Z,19.60
2018-06-12T05:47:16.676Z,19.90
2018-06-12T05:49:46.481Z,19.80
2018-06-12T05:52:22.294Z,19.60
2018-06-12T05:54:55.636Z,19.40
2018-06-12T05:57:27.569Z,19.20
2018-06-12T05:59:57.297Z,19.10
2018-06-12T06:02:28.129Z,19.00
2018-06-12T06:04:56.928Z,18.90
2018-06-12T06:07:36.488Z,18.80
2018-06-12T06:10:05.366Z,18.70
2018-06-12T06:15:20.917Z,18.80
2018-06-12T06:17:53.013Z,18.80
2018-06-12T06:20:23.865Z,18.60
2018-06-12T06:25:21.225Z,18.30
2018-06-12T06:30:27.489Z,18.10
2018-06-12T06:32:56.293Z,18.10
2018-06-12T06:38:01.365Z,18.10
2018-06-12T06:40:34.960Z,18.20
2018-06-12T06:43:10.221Z,18.60
2018-06-12T06:45:43.472Z,19.10
2018-06-12T06:48:23.764Z,19.60
2018-06-12T06:50:56.042Z,20.10
2018-06-12T06:53:24.824Z,20.60
2018-06-12T06:55:55.560Z,20.90
2018-06-12T06:58:26.352Z,21.00
2018-06-12T07:00:55.168Z,20.90
2018-06-12T07:03:24.020Z,21.00
2018-06-12T07:05:56.289Z,21.10
2018-06-12T07:08:28.160Z,21.10
2018-06-12T07:10:56.973Z,21.20
2018-06-12T07:13:25.860Z,21.70
2018-06-12T07:18:24.151Z,22.70
2018-06-12T07:21:05.689Z,23.20
2018-06-12T07:23:35.520Z,23.30
2018-06-12T07:26:06.366Z,24.00
2018-06-12T07:28:42.607Z,24.70
2018-06-12T07:31:16.847Z,24.90
2018-06-12T07:33:47.123Z,24.80
2018-06-12T07:36:22.759Z,24.60
2018-06-12T07:38:53.560Z,24.90
2018-06-12T07:41:22.456Z,25.20
2018-06-12T07:43:55.756Z,25.20
2018-06-12T07:46:25.532Z,25.20
2018-06-12T07:48:54.316Z,25.20
2018-06-12T07:51:23.068Z,25.00
2018-06-12T07:53:54.896Z,24.70
2018-06-12T07:56:24.720Z,24.60
2018-06-12T07:58:56.649Z,24.20
2018-06-12T08:01:43.420Z,24.00
2018-06-12T08:04:16.407Z,24.00
2018-06-12T08:06:45.160Z,24.30
2018-06-12T08:09:17.881Z,24.50
2018-06-12T08:11:51.195Z,24.80
2018-06-12T08:14:21.008Z,24.80
2018-06-12T08:16:51.813Z,24.60
2018-06-12T08:19:21.648Z,24.40
2018-06-12T08:21:55.286Z,24.90
2018-06-12T08:27:27.172Z,25.80
2018-06-12T08:30:05.892Z,26.40
2018-06-12T08:32:36.209Z,27.00
2018-06-12T08:37:34.377Z,26.90
2018-06-12T08:40:03.165Z,26.40
2018-06-12T08:42:31.909Z,26.90
2018-06-12T08:45:01.785Z,27.80
2018-06-12T08:47:30.545Z,28.40
2018-06-12T08:50:05.287Z,29.40
2018-06-12T08:52:38.677Z,30.00
2018-06-12T08:55:10.543Z,29.40
2018-06-12T08:57:42.408Z,28.90
2018-06-12T09:00:11.210Z,29.20
2018-06-12T09:02:40.701Z,29.10
2018-06-12T09:05:09.448Z,29.20
2018-06-12T09:07:39.292Z,29.70
2018-06-12T09:10:09.002Z,29.80
2018-06-12T09:15:10.241Z,29.20
2018-06-12T09:17:55.717Z,29.40
2018-06-12T09:20:25.569Z,29.20
2018-06-12T09:22:56.280Z,29.30
2018-06-12T09:25:35.132Z,30.10
2018-06-12T09:28:04.884Z,30.30
2018-06-12T09:30:53.412Z,29.90
2018-06-12T09:33:24.223Z,29.40
2018-06-12T09:36:01.748Z,28.90
2018-06-12T09:38:54.311Z,28.20
2018-06-12T09:41:46.187Z,27.50
2018-06-12T09:49:30.185Z,25.10
2018-06-12T09:51:58.888Z,24.50
2018-06-12T09:54:27.741Z,24.40
2018-06-12T09:56:56.475Z,24.80
2018-06-12T09:59:25.228Z,25.00
2018-06-12T10:01:57.352Z,25.50
2018-06-12T10:04:27.176Z,25.60
2018-06-12T10:06:57.952Z,25.80
2018-06-12T10:09:32.252Z,26.10
2018-06-12T10:12:04.678Z,26.40
2018-06-12T10:14:36.692Z,26.60
2018-06-12T10:17:07.484Z,27.20
2018-06-12T10:19:48.204Z,28.40
2018-06-12T10:22:17.972Z,29.30
2018-06-12T10:24:48.813Z,29.40
2018-06-12T10:27:29.800Z,28.10
2018-06-12T10:30:04.984Z,28.40
2018-06-12T10:32:39.440Z,28.60
2018-06-12T10:35:09.568Z,28.40
2018-06-12T10:37:56.968Z,28.40
2018-06-12T10:40:29.956Z,28.40
2018-06-12T10:43:00.816Z,28.50
2018-06-12T10:45:31.648Z,27.60
2018-06-12T10:48:02.488Z,27.20
2018-06-12T10:50:48.731Z,26.20
2018-06-12T10:56:23.228Z,25.70
2018-06-12T10:58:56.984Z,26.00
2018-06-12T11:01:25.910Z,25.50
2018-06-12T11:03:54.667Z,26.20
2018-06-12T11:06:23.416Z,26.60
2018-06-12T11:08:53.192Z,27.60
2018-06-12T11:11:22.187Z,28.80
2018-06-12T11:13:55.648Z,29.10
2018-06-12T11:16:32.248Z,28.80
2018-06-12T11:19:03.096Z,29.50
2018-06-12T11:21:31.884Z,31.70
2018-06-12T11:24:00.676Z,30.90
2018-06-12T11:26:29.436Z,30.60
2018-06-12T11:28:59.172Z,30.60
2018-06-12T11:31:28.983Z,31.40
2018-06-12T11:33:57.743Z,31.00
2018-06-12T11:36:29.715Z,30.80
2018-06-12T11:38:59.620Z,30.20
2018-06-12T11:41:33.480Z,30.20
2018-06-12T11:44:21.331Z,29.40
2018-06-12T11:46:52.079Z,29.20
2018-06-12T11:49:22.831Z,29.30
2018-06-12T11:51:51.659Z,30.20
2018-06-12T11:54:22.484Z,30.60
2018-06-12T11:56:54.363Z,30.30
2018-06-12T11:59:23.267Z,31.30
2018-06-12T12:01:52.245Z,33.10
2018-06-12T12:04:22.979Z,33.70
2018-06-12T12:06:52.715Z,32.90
2018-06-12T12:09:21.484Z,32.00
2018-06-12T12:11:56.810Z,32.00
2018-06-12T12:14:25.659Z,30.90
2018-06-12T12:16:58.428Z,30.00
2018-06-12T12:19:37.931Z,29.30
2018-06-12T12:22:09.039Z,28.30
2018-06-12T12:24:45.040Z,26.60
2018-06-12T12:27:28.091Z,25.30
2018-06-12T12:32:38.755Z,24.10
2018-06-12T12:35:10.469Z,23.70
2018-06-12T12:37:39.274Z,23.30
2018-06-12T12:40:09.998Z,23.10
2018-06-12T12:42:40.862Z,22.80
2018-06-12T12:45:09.619Z,22.80
2018-06-12T12:50:12.519Z,22.60
2018-06-12T12:52:41.282Z,22.50
2018-06-12T12:55:11.023Z,22.50
2018-06-12T12:57:40.763Z,22.50
2018-06-12T13:00:10.558Z,22.40
2018-06-12T13:02:39.638Z,22.30
2018-06-12T13:05:10.918Z,22.20
2018-06-12T13:07:40.682Z,22.10
2018-06-12T13:10:09.505Z,21.80
2018-06-12T13:12:40.258Z,21.30
2018-06-12T13:15:10.117Z,20.70
2018-06-12T13:17:45.081Z,20.10
2018-06-12T13:20:19.645Z,19.70
2018-06-12T13:22:55.887Z,19.60
2018-06-12T13:25:30.602Z,19.50
2018-06-12T13:28:01.411Z,19.50
2018-06-12T13:30:38.207Z,19.50
2018-06-12T13:33:06.975Z,19.50
2018-06-12T13:35:41.223Z,19.60
2018-06-12T13:38:15.928Z,19.80
2018-06-12T13:40:52.216Z,20.00
2018-06-12T13:43:33.951Z,20.30
2018-06-12T13:46:09.024Z,20.50
2018-06-12T13:48:39.819Z,21.10
2018-06-12T13:51:09.624Z,22.20
2018-06-12T13:53:44.619Z,23.10
2018-06-12T13:56:18.135Z,23.50
2018-06-12T13:58:47.999Z,23.50
2018-06-12T14:01:17.743Z,23.70
2018-06-12T14:03:48.495Z,23.80
2018-06-12T14:06:19.343Z,25.80
2018-06-12T14:08:55.027Z,28.20
2018-06-12T14:11:42.468Z,28.80
2018-06-12T14:14:25.007Z,30.00
2018-06-12T14:16:55.755Z,30.20
2018-06-12T14:19:35.851Z,29.10
2018-06-12T14:22:08.014Z,28.50
2018-06-12T14:24:40.894Z,27.70
2018-06-12T14:27:12.751Z,27.50
2018-06-12T14:29:49.043Z,27.10
2018-06-12T14:32:17.875Z,26.10
2018-06-12T14:34:46.636Z,25.80
2018-06-12T14:37:36.167Z,25.80
2018-06-12T14:40:07.914Z,25.90
2018-06-12T14:42:46.118Z,26.10
2018-06-12T14:45:18.338Z,26.00
2018-06-12T14:47:52.519Z,25.30
2018-06-12T14:50:24.298Z,24.90
2018-06-12T14:52:58.519Z,25.70
2018-06-12T14:55:33.063Z,26.20
2018-06-12T14:58:03.198Z,26.10
2018-06-12T15:00:42.174Z,26.40
2018-06-12T15:03:10.998Z,26.90
2018-06-12T15:05:40.814Z,28.60
2018-06-12T15:08:13.090Z,27.80
2018-06-12T15:10:42.943Z,26.60
2018-06-12T15:13:32.843Z,26.00
2018-06-12T15:16:03.551Z,25.40
2018-06-12T15:18:32.326Z,26.10
2018-06-12T15:21:04.995Z,27.20
2018-06-12T15:23:34.818Z,27.90
2018-06-12T15:26:04.627Z,27.00
2018-06-12T15:28:35.547Z,25.30
2018-06-12T15:31:18.615Z,24.60
2018-06-12T15:33:49.378Z,24.20
2018-06-12T15:36:19.279Z,23.90
2018-06-12T15:38:49.250Z,23.60
2018-06-12T15:41:23.587Z,23.80
2018-06-12T15:43:57.691Z,24.20
2018-06-12T15:46:27.471Z,25.00
2018-06-12T15:48:58.274Z,26.60
2018-06-12T15:51:33.027Z,28.00
2018-06-12T15:54:07.090Z,28.40
2018-06-12T15:56:36.262Z,27.60
2018-06-12T15:59:05.063Z,25.80
2018-06-12T16:04:02.556Z,24.90
2018-06-12T16:06:31.435Z,24.90
2018-06-12T16:11:35.670Z,24.30
2018-06-12T16:14:10.110Z,24.10
2018-06-12T16:16:42.602Z,23.80
2018-06-12T16:19:11.374Z,23.60
2018-06-12T16:21:43.515Z,23.40
2018-06-12T16:24:12.298Z,23.20
2018-06-12T16:26:57.226Z,23.50
2018-06-12T16:29:33.570Z,23.50
2018-06-12T16:32:02.403Z,23.30
2018-06-12T16:34:32.243Z,22.70
2018-06-12T16:37:02.067Z,22.50
2018-06-12T16:42:24.008Z,22.20
2018-06-12T16:44:57.447Z,22.20
2018-06-12T16:47:42.514Z,22.00
2018-06-12T16:50:17.066Z,21.80
2018-06-12T16:52:55.926Z,22.00
2018-06-12T16:55:26.646Z,21.90
2018-06-12T16:57:56.463Z,21.80
2018-06-12T17:00:45.462Z,21.70
2018-06-12T17:03:18.097Z,21.60
2018-06-12T17:05:46.874Z,21.80
2018-06-12T17:10:57.938Z,21.80
2018-06-12T17:13:26.714Z,22.10
2018-06-12T17:15:58.938Z,22.10
2018-06-12T17:18:38.246Z,21.80
2018-06-12T17:21:10.102Z,21.80
2018-06-12T17:23:44.194Z,21.40
2018-06-12T17:26:15.058Z,21.20
2018-06-12T17:28:49.278Z,21.00
2018-06-12T17:31:21.438Z,20.90
2018-06-12T17:33:50.274Z,21.00
2018-06-12T17:38:47.942Z,21.00
2018-06-12T17:41:16.714Z,20.90
2018-06-12T17:43:45.598Z,20.90
2018-06-12T17:46:14.378Z,20.90
2018-06-12T17:48:43.129Z,20.80
2018-06-12T17:51:17.354Z,20.70
2018-06-12T17:53:47.106Z,20.70
2018-06-12T17:56:17.737Z,20.70
2018-06-12T17:58:47.526Z,20.60
2018-06-12T18:01:16.342Z,20.50
2018-06-12T18:03:46.141Z,20.30
2018-06-12T18:06:19.454Z,20.20
2018-06-12T18:08:50.266Z,20.00
2018-06-12T18:11:23.426Z,19.90
2018-06-12T18:13:53.271Z,19.80
2018-06-12T18:16:23.086Z,19.80
2018-06-12T18:18:52.962Z,19.70
2018-06-12T18:21:21.853Z,19.80
2018-06-12T18:23:52.809Z,19.80
2018-06-12T18:26:23.707Z,19.80
2018-06-12T18:28:52.566Z,19.80
2018-06-12T18:31:21.442Z,19.70
2018-06-12T18:33:51.206Z,19.70
2018-06-12T18:36:29.793Z,19.70
2018-06-12T18:38:59.594Z,19.70
2018-06-12T18:41:33.822Z,19.60
2018-06-12T18:44:03.644Z,19.50
2018-06-12T18:46:33.418Z,19.40
2018-06-12T18:51:35.914Z,19.40
2018-06-12T18:54:05.746Z,19.30
2018-06-12T18:56:36.613Z,19.30
2018-06-12T18:59:08.626Z,19.10
2018-06-12T19:01:37.586Z,19.00
2018-06-12T19:04:11.243Z,18.90
2018-06-12T19:06:44.288Z,18.80
2018-06-12T19:09:13.118Z,18.60
2018-06-12T19:11:43.938Z,18.60
2018-06-12T19:14:12.809Z,18.50
2018-06-12T19:21:47.173Z,18.40
2018-06-12T19:24:16.990Z,18.30
2018-06-12T19:26:45.850Z,18.30
2018-06-12T19:29:18.818Z,18.30
2018-06-12T19:31:52.310Z,18.20
2018-06-12T19:34:22.058Z,18.20
2018-06-12T19:36:50.810Z,18.10
2018-06-12T19:39:19.654Z,18.10
2018-06-12T19:41:52.026Z,18.10
2018-06-12T19:44:22.797Z,18.00
2018-06-12T19:46:58.126Z,17.90
2018-06-12T19:49:28.878Z,17.90
2018-06-12T19:52:04.578Z,17.90
2018-06-12T19:54:33.441Z,17.90
2018-06-12T19:57:04.298Z,17.80
2018-06-12T20:02:02.570Z,17.80
2018-06-12T20:07:03.149Z,17.70
2018-06-12T20:09:37.414Z,17.60
2018-06-12T20:12:06.254Z,17.60
2018-06-12T20:14:41.809Z,17.60
2018-06-12T20:17:10.565Z,17.50
2018-06-12T20:19:39.391Z,17.50
2018-06-12T20:22:25.993Z,17.40
2018-06-12T20:25:01.407Z,17.40
2018-06-12T20:27:34.765Z,17.30
2018-06-12T20:30:04.617Z,17.20
2018-06-12T20:32:33.409Z,17.20
2018-06-12T20:35:09.713Z,17.10
2018-06-12T20:37:40.553Z,17.10
2018-06-12T20:40:17.025Z,17.00
2018-06-12T20:42:46.907Z,17.00
2018-06-12T20:45:20.398Z,17.00
2018-06-12T20:47:52.585Z,16.90
2018-06-12T20:50:22.471Z,16.90
2018-06-12T20:53:00.679Z,16.80
2018-06-12T20:55:30.538Z,16.80
2018-06-12T20:58:00.325Z,16.80
2018-06-12T21:00:29.097Z,16.80
2018-06-12T21:02:58.917Z,16.80
2018-06-12T21:05:27.821Z,16.80
2018-06-12T21:08:00.545Z,16.80
2018-06-12T21:10:29.365Z,16.70
2018-06-12T21:12:59.165Z,16.70
2018-06-12T21:15:31.421Z,16.60
2018-06-12T21:18:01.213Z,16.50
2018-06-12T21:20:30.093Z,16.50
2018-06-12T21:22:58.955Z,16.50
2018-06-12T21:25:28.785Z,16.40
2018-06-12T21:27:57.881Z,16.30
2018-06-12T21:30:28.577Z,16.30
2018-06-12T21:32:57.562Z,16.30
2018-06-12T21:35:32.936Z,16.30
2018-06-12T21:38:08.688Z,16.20
2018-06-12T21:40:42.397Z,16.20
2018-06-12T21:43:15.901Z,16.10
2018-06-12T21:45:46.709Z,16.10
2018-06-12T21:48:15.597Z,16.10
2018-06-12T21:50:49.337Z,16.00
2018-06-12T21:53:19.217Z,16.00
2018-06-12T21:56:00.437Z,16.00
2018-06-12T21:58:31.453Z,16.00
2018-06-12T22:01:00.353Z,16.00
2018-06-12T22:03:29.177Z,16.00
2018-06-12T22:08:31.925Z,16.10
2018-06-12T22:11:00.881Z,16.00
2018-06-12T22:13:30.694Z,16.00
2018-06-12T22:15:59.470Z,16.10
2018-06-12T22:18:28.299Z,16.10
2018-06-12T22:20:57.185Z,16.20
2018-06-12T22:23:27.017Z,16.10
2018-06-12T22:25:59.786Z,16.10
2018-06-12T22:28:28.621Z,16.00
2018-06-12T22:30:57.413Z,16.00
2018-06-12T22:33:26.223Z,16.00
2018-06-12T22:35:55.985Z,16.00
2018-06-12T22:38:25.871Z,16.00
2018-06-12T22:40:56.732Z,16.00
2018-06-12T22:43:26.585Z,16.00
2018-06-12T22:48:24.870Z,16.00
2018-06-12T22:50:53.669Z,16.00
2018-06-12T22:53:23.441Z,16.00
2018-06-12T22:55:54.341Z,15.90
2018-06-12T22:58:24.118Z,15.90
2018-06-12T23:00:53.873Z,15.90
2018-06-12T23:03:26.622Z,15.90
2018-06-12T23:05:56.409Z,15.90
2018-06-12T23:08:28.581Z,15.80
2018-06-12T23:10:58.529Z,15.80
2018-06-12T23:13:28.293Z,15.80
2018-06-12T23:15:57.073Z,15.80
2018-06-12T23:18:26.921Z,15.80
2018-06-12T23:22:05.213Z,15.80
2018-06-12T23:24:37.717Z,15.80
2018-06-12T23:27:11.806Z,15.80
2018-06-12T23:29:40.605Z,15.80
2018-06-12T23:32:10.441Z,15.70
2018-06-12T23:34:46.333Z,15.80
2018-06-12T23:37:17.240Z,15.80
2018-06-12T23:40:00.116Z,15.80
2018-06-12T23:42:29.952Z,15.80
2018-06-12T23:44:58.836Z,15.80
2018-06-12T23:47:28.677Z,15.80
2018-06-12T23:50:01.217Z,15.90
2018-06-12T23:52:31.013Z,15.80
2018-06-12T23:54:59.831Z,15.80
2018-06-12T23:57:28.692Z,15.80
